sensor_id;sensor_type;location;lat;lon;timestamp;P1;durP1;ratioP1;P2;durP2;ratioP2
60610;SDS011;46439;51.164;13.572;2022-08-01T00:00:24;3.30;;;2.40;;
60610;SDS011;46439;51.164;13.572;2022-08-01T00:02:53;4.10;;;2.60;;
60610;SDS011;46439;51.164;13.572;2022-08-01T00:05:21;3.40;;;2.60;;
60610;SDS011;46439;51.164;13.572;2022-08-01T00:07:50;4.30;;;2.90;;
60610;SDS011;46439;51.164;13.572;2022-08-01T00:10:18;3.70;;;2.70;;
60610;SDS011;46439;51.164;13.572;2022-08-01T00:12:47;2.70;;;2.40;;
60610;SDS011;46439;51.164;13.572;2022-08-01T00:15:15;4.50;;;2.60;;
60610;SDS011;46439;51.164;13.572;2022-08-01T00:17:44;6.30;;;2.80;;
60610;SDS011;46439;51.164;13.572;2022-08-01T00:20:13;4.90;;;2.70;;
60610;SDS011;46439;51.164;13.572;2022-08-01T00:22:42;3.90;;;2.50;;
60610;SDS011;46439;51.164;13.572;2022-08-01T00:25:10;3.60;;;2.70;;
60610;SDS011;46439;51.164;13.572;2022-08-01T00:27:38;3.40;;;2.70;;
60610;SDS011;46439;51.164;13.572;2022-08-01T00:30:07;3.10;;;2.80;;
60610;SDS011;46439;51.164;13.572;2022-08-01T00:32:36;4.40;;;2.90;;
60610;SDS011;46439;51.164;13.572;2022-08-01T00:35:05;3.40;;;2.70;;
60610;SDS011;46439;51.164;13.572;2022-08-01T00:37:34;3.40;;;2.70;;
60610;SDS011;46439;51.164;13.572;2022-08-01T00:40:02;3.80;;;2.90;;
60610;SDS011;46439;51.164;13.572;2022-08-01T00:42:32;4.90;;;2.80;;
60610;SDS011;46439;51.164;13.572;2022-08-01T00:45:00;4.90;;;2.60;;
60610;SDS011;46439;51.164;13.572;2022-08-01T00:47:29;5.20;;;2.70;;
60610;SDS011;46439;51.164;13.572;2022-08-01T00:49:57;7.00;;;3.00;;
60610;SDS011;46439;51.164;13.572;2022-08-01T00:52:26;5.90;;;2.90;;
60610;SDS011;46439;51.164;13.572;2022-08-01T00:54:54;4.00;;;2.90;;
60610;SDS011;46439;51.164;13.572;2022-08-01T00:57:23;5.20;;;2.80;;
60610;SDS011;46439;51.164;13.572;2022-08-01T00:59:52;4.20;;;2.80;;
60610;SDS011;46439;51.164;13.572;2022-08-01T01:02:20;3.40;;;2.90;;
60610;SDS011;46439;51.164;13.572;2022-08-01T01:04:49;3.90;;;2.60;;
60610;SDS011;46439;51.164;13.572;2022-08-01T01:07:19;4.40;;;2.60;;
60610;SDS011;46439;51.164;13.572;2022-08-01T01:09:56;3.90;;;2.80;;
60610;SDS011;46439;51.164;13.572;2022-08-01T01:12:29;3.10;;;2.70;;
60610;SDS011;46439;51.164;13.572;2022-08-01T01:15:03;4.10;;;2.80;;
60610;SDS011;46439;51.164;13.572;2022-08-01T01:17:35;4.20;;;2.90;;
60610;SDS011;46439;51.164;13.572;2022-08-01T01:20:08;5.40;;;3.20;;
60610;SDS011;46439;51.164;13.572;2022-08-01T01:22:45;3.50;;;2.70;;
60610;SDS011;46439;51.164;13.572;2022-08-01T01:28:24;5.40;;;2.90;;
60610;SDS011;46439;51.164;13.572;2022-08-01T01:30:58;4.50;;;2.80;;
60610;SDS011;46439;51.164;13.572;2022-08-01T01:35:59;3.70;;;2.70;;
60610;SDS011;46439;51.164;13.572;2022-08-01T01:38:33;6.70;;;3.00;;
60610;SDS011;46439;51.164;13.572;2022-08-01T01:41:11;3.70;;;3.00;;
60610;SDS011;46439;51.164;13.572;2022-08-01T01:43:40;3.60;;;2.70;;
60610;SDS011;46439;51.164;13.572;2022-08-01T01:46:10;3.80;;;2.70;;
60610;SDS011;46439;51.164;13.572;2022-08-01T01:51:10;3.10;;;2.70;;
60610;SDS011;46439;51.164;13.572;2022-08-01T01:53:40;5.30;;;2.90;;
60610;SDS011;46439;51.164;13.572;2022-08-01T01:56:10;5.80;;;2.80;;
60610;SDS011;46439;51.164;13.572;2022-08-01T01:58:41;4.00;;;2.90;;
60610;SDS011;46439;51.164;13.572;2022-08-01T02:01:15;4.20;;;2.70;;
60610;SDS011;46439;51.164;13.572;2022-08-01T02:03:44;4.50;;;2.80;;
60610;SDS011;46439;51.164;13.572;2022-08-01T02:06:15;3.20;;;2.90;;
60610;SDS011;46439;51.164;13.572;2022-08-01T02:08:44;4.90;;;3.30;;
60610;SDS011;46439;51.164;13.572;2022-08-01T02:11:14;3.40;;;2.80;;
60610;SDS011;46439;51.164;13.572;2022-08-01T02:13:46;5.20;;;2.90;;
60610;SDS011;46439;51.164;13.572;2022-08-01T02:16:20;2.90;;;2.60;;
60610;SDS011;46439;51.164;13.572;2022-08-01T02:18:50;3.30;;;2.80;;
60610;SDS011;46439;51.164;13.572;2022-08-01T02:21:20;4.30;;;3.00;;
60610;SDS011;46439;51.164;13.572;2022-08-01T02:23:52;4.50;;;2.90;;
60610;SDS011;46439;51.164;13.572;2022-08-01T02:26:22;4.20;;;2.60;;
60610;SDS011;46439;51.164;13.572;2022-08-01T02:28:53;3.70;;;2.70;;
60610;SDS011;46439;51.164;13.572;2022-08-01T02:31:25;2.90;;;2.50;;
60610;SDS011;46439;51.164;13.572;2022-08-01T02:33:58;3.40;;;2.70;;
60610;SDS011;46439;51.164;13.572;2022-08-01T02:36:31;3.80;;;3.00;;
60610;SDS011;46439;51.164;13.572;2022-08-01T02:39:03;4.70;;;3.10;;
60610;SDS011;46439;51.164;13.572;2022-08-01T02:41:36;3.30;;;3.00;;
60610;SDS011;46439;51.164;13.572;2022-08-01T02:44:09;5.40;;;2.70;;
60610;SDS011;46439;51.164;13.572;2022-08-01T02:46:43;3.00;;;2.70;;
60610;SDS011;46439;51.164;13.572;2022-08-01T02:49:19;3.90;;;2.90;;
60610;SDS011;46439;51.164;13.572;2022-08-01T02:51:50;4.50;;;2.90;;
60610;SDS011;46439;51.164;13.572;2022-08-01T02:54:21;4.50;;;3.00;;
60610;SDS011;46439;51.164;13.572;2022-08-01T02:56:52;4.30;;;2.90;;
60610;SDS011;46439;51.164;13.572;2022-08-01T02:59:23;4.40;;;2.90;;
60610;SDS011;46439;51.164;13.572;2022-08-01T03:01:53;2.90;;;2.60;;
60610;SDS011;46439;51.164;13.572;2022-08-01T03:04:23;4.90;;;3.00;;
60610;SDS011;46439;51.164;13.572;2022-08-01T03:06:54;5.30;;;3.20;;
60610;SDS011;46439;51.164;13.572;2022-08-01T03:11:51;6.50;;;2.90;;
60610;SDS011;46439;51.164;13.572;2022-08-01T03:14:22;4.80;;;2.90;;
60610;SDS011;46439;51.164;13.572;2022-08-01T03:16:53;3.80;;;2.70;;
60610;SDS011;46439;51.164;13.572;2022-08-01T03:19:24;4.80;;;2.90;;
60610;SDS011;46439;51.164;13.572;2022-08-01T03:21:53;3.00;;;2.60;;
60610;SDS011;46439;51.164;13.572;2022-08-01T03:24:25;4.10;;;2.90;;
60610;SDS011;46439;51.164;13.572;2022-08-01T03:26:54;7.20;;;3.00;;
60610;SDS011;46439;51.164;13.572;2022-08-01T03:29:25;4.10;;;3.00;;
60610;SDS011;46439;51.164;13.572;2022-08-01T03:31:56;4.60;;;3.00;;
60610;SDS011;46439;51.164;13.572;2022-08-01T03:34:26;3.60;;;2.60;;
60610;SDS011;46439;51.164;13.572;2022-08-01T03:36:58;3.80;;;3.00;;
60610;SDS011;46439;51.164;13.572;2022-08-01T03:39:30;4.20;;;2.80;;
60610;SDS011;46439;51.164;13.572;2022-08-01T03:42:03;3.50;;;2.90;;
60610;SDS011;46439;51.164;13.572;2022-08-01T03:44:36;4.40;;;2.90;;
60610;SDS011;46439;51.164;13.572;2022-08-01T03:47:08;4.30;;;2.80;;
60610;SDS011;46439;51.164;13.572;2022-08-01T03:49:40;6.00;;;2.80;;
60610;SDS011;46439;51.164;13.572;2022-08-01T03:52:11;4.00;;;3.00;;
60610;SDS011;46439;51.164;13.572;2022-08-01T03:54:41;3.90;;;2.80;;
60610;SDS011;46439;51.164;13.572;2022-08-01T03:57:13;4.20;;;2.90;;
60610;SDS011;46439;51.164;13.572;2022-08-01T03:59:43;6.40;;;2.90;;
60610;SDS011;46439;51.164;13.572;2022-08-01T04:02:12;6.40;;;2.80;;
60610;SDS011;46439;51.164;13.572;2022-08-01T04:04:42;3.70;;;3.10;;
60610;SDS011;46439;51.164;13.572;2022-08-01T04:07:22;3.90;;;2.80;;
60610;SDS011;46439;51.164;13.572;2022-08-01T04:09:51;4.70;;;2.70;;
60610;SDS011;46439;51.164;13.572;2022-08-01T04:12:20;5.00;;;2.80;;
60610;SDS011;46439;51.164;13.572;2022-08-01T04:14:49;3.00;;;2.70;;
60610;SDS011;46439;51.164;13.572;2022-08-01T04:17:18;3.80;;;3.00;;
60610;SDS011;46439;51.164;13.572;2022-08-01T04:19:46;3.80;;;2.70;;
60610;SDS011;46439;51.164;13.572;2022-08-01T04:22:15;4.40;;;2.80;;
60610;SDS011;46439;51.164;13.572;2022-08-01T04:24:44;3.40;;;2.80;;
60610;SDS011;46439;51.164;13.572;2022-08-01T04:27:17;3.00;;;2.70;;
60610;SDS011;46439;51.164;13.572;2022-08-01T04:29:50;3.70;;;2.80;;
60610;SDS011;46439;51.164;13.572;2022-08-01T04:32:21;7.50;;;2.90;;
60610;SDS011;46439;51.164;13.572;2022-08-01T04:34:51;4.70;;;2.80;;
60610;SDS011;46439;51.164;13.572;2022-08-01T04:37:23;4.50;;;3.10;;
60610;SDS011;46439;51.164;13.572;2022-08-01T04:39:54;4.60;;;3.00;;
60610;SDS011;46439;51.164;13.572;2022-08-01T04:42:23;5.80;;;3.50;;
60610;SDS011;46439;51.164;13.572;2022-08-01T04:44:52;5.70;;;3.30;;
60610;SDS011;46439;51.164;13.572;2022-08-01T04:47:20;4.00;;;2.80;;
60610;SDS011;46439;51.164;13.572;2022-08-01T04:49:49;4.80;;;3.10;;
60610;SDS011;46439;51.164;13.572;2022-08-01T04:52:19;6.40;;;2.70;;
60610;SDS011;46439;51.164;13.572;2022-08-01T04:54:47;5.70;;;3.20;;
60610;SDS011;46439;51.164;13.572;2022-08-01T04:57:16;4.60;;;2.90;;
60610;SDS011;46439;51.164;13.572;2022-08-01T04:59:44;4.10;;;2.70;;
60610;SDS011;46439;51.164;13.572;2022-08-01T05:02:13;4.50;;;3.10;;
60610;SDS011;46439;51.164;13.572;2022-08-01T05:07:12;6.00;;;3.10;;
60610;SDS011;46439;51.164;13.572;2022-08-01T05:09:42;5.20;;;3.00;;
60610;SDS011;46439;51.164;13.572;2022-08-01T05:12:13;5.10;;;2.70;;
60610;SDS011;46439;51.164;13.572;2022-08-01T05:14:42;4.70;;;2.90;;
60610;SDS011;46439;51.164;13.572;2022-08-01T05:17:11;4.30;;;2.80;;
60610;SDS011;46439;51.164;13.572;2022-08-01T05:19:39;3.30;;;2.70;;
60610;SDS011;46439;51.164;13.572;2022-08-01T05:22:09;4.30;;;2.90;;
60610;SDS011;46439;51.164;13.572;2022-08-01T05:24:38;3.50;;;2.70;;
60610;SDS011;46439;51.164;13.572;2022-08-01T05:27:07;4.40;;;2.70;;
60610;SDS011;46439;51.164;13.572;2022-08-01T05:29:36;6.30;;;2.90;;
60610;SDS011;46439;51.164;13.572;2022-08-01T05:32:05;4.10;;;2.70;;
60610;SDS011;46439;51.164;13.572;2022-08-01T05:34:34;6.60;;;2.80;;
60610;SDS011;46439;51.164;13.572;2022-08-01T05:37:03;4.30;;;2.70;;
60610;SDS011;46439;51.164;13.572;2022-08-01T05:39:31;3.90;;;2.40;;
60610;SDS011;46439;51.164;13.572;2022-08-01T05:41:59;3.80;;;2.50;;
60610;SDS011;46439;51.164;13.572;2022-08-01T05:44:28;3.10;;;2.50;;
60610;SDS011;46439;51.164;13.572;2022-08-01T05:46:56;4.00;;;2.50;;
60610;SDS011;46439;51.164;13.572;2022-08-01T05:49:25;4.70;;;2.60;;
60610;SDS011;46439;51.164;13.572;2022-08-01T05:51:53;3.80;;;2.50;;
60610;SDS011;46439;51.164;13.572;2022-08-01T05:54:21;3.10;;;2.40;;
60610;SDS011;46439;51.164;13.572;2022-08-01T05:56:50;3.70;;;2.40;;
60610;SDS011;46439;51.164;13.572;2022-08-01T05:59:18;2.50;;;2.20;;
60610;SDS011;46439;51.164;13.572;2022-08-01T06:01:47;3.80;;;2.50;;
60610;SDS011;46439;51.164;13.572;2022-08-01T06:04:15;5.00;;;2.30;;
60610;SDS011;46439;51.164;13.572;2022-08-01T06:06:44;2.80;;;2.40;;
60610;SDS011;46439;51.164;13.572;2022-08-01T06:09:12;2.70;;;2.40;;
60610;SDS011;46439;51.164;13.572;2022-08-01T06:11:40;4.20;;;2.50;;
60610;SDS011;46439;51.164;13.572;2022-08-01T06:14:09;3.80;;;2.70;;
60610;SDS011;46439;51.164;13.572;2022-08-01T06:16:37;3.90;;;2.80;;
60610;SDS011;46439;51.164;13.572;2022-08-01T06:19:06;6.50;;;2.80;;
60610;SDS011;46439;51.164;13.572;2022-08-01T06:21:36;3.20;;;2.50;;
60610;SDS011;46439;51.164;13.572;2022-08-01T06:24:06;4.90;;;2.90;;
60610;SDS011;46439;51.164;13.572;2022-08-01T06:26:35;4.60;;;2.80;;
60610;SDS011;46439;51.164;13.572;2022-08-01T06:29:04;5.10;;;2.90;;
60610;SDS011;46439;51.164;13.572;2022-08-01T06:31:32;4.20;;;2.80;;
60610;SDS011;46439;51.164;13.572;2022-08-01T06:34:00;3.50;;;2.60;;
60610;SDS011;46439;51.164;13.572;2022-08-01T06:36:29;3.80;;;2.50;;
60610;SDS011;46439;51.164;13.572;2022-08-01T06:38:57;2.90;;;2.40;;
60610;SDS011;46439;51.164;13.572;2022-08-01T06:41:25;5.40;;;2.70;;
60610;SDS011;46439;51.164;13.572;2022-08-01T06:43:54;4.30;;;3.00;;
60610;SDS011;46439;51.164;13.572;2022-08-01T06:46:22;4.90;;;2.70;;
60610;SDS011;46439;51.164;13.572;2022-08-01T06:48:51;2.90;;;2.70;;
60610;SDS011;46439;51.164;13.572;2022-08-01T06:51:19;5.20;;;3.10;;
60610;SDS011;46439;51.164;13.572;2022-08-01T06:53:47;4.30;;;2.80;;
60610;SDS011;46439;51.164;13.572;2022-08-01T06:56:16;3.60;;;2.80;;
60610;SDS011;46439;51.164;13.572;2022-08-01T06:58:44;3.20;;;2.80;;
60610;SDS011;46439;51.164;13.572;2022-08-01T07:01:12;5.80;;;3.00;;
60610;SDS011;46439;51.164;13.572;2022-08-01T07:03:41;5.50;;;3.00;;
60610;SDS011;46439;51.164;13.572;2022-08-01T07:06:09;4.60;;;2.90;;
60610;SDS011;46439;51.164;13.572;2022-08-01T07:08:37;6.40;;;2.60;;
60610;SDS011;46439;51.164;13.572;2022-08-01T07:11:06;5.00;;;3.00;;
60610;SDS011;46439;51.164;13.572;2022-08-01T07:13:34;3.70;;;2.90;;
60610;SDS011;46439;51.164;13.572;2022-08-01T07:16:03;4.60;;;3.30;;
60610;SDS011;46439;51.164;13.572;2022-08-01T07:18:31;5.20;;;3.20;;
60610;SDS011;46439;51.164;13.572;2022-08-01T07:21:00;5.10;;;3.10;;
60610;SDS011;46439;51.164;13.572;2022-08-01T07:23:28;5.20;;;3.20;;
60610;SDS011;46439;51.164;13.572;2022-08-01T07:25:56;5.30;;;3.00;;
60610;SDS011;46439;51.164;13.572;2022-08-01T07:28:25;3.70;;;3.10;;
60610;SDS011;46439;51.164;13.572;2022-08-01T07:30:54;3.70;;;3.30;;
60610;SDS011;46439;51.164;13.572;2022-08-01T07:33:22;6.60;;;3.40;;
60610;SDS011;46439;51.164;13.572;2022-08-01T07:35:50;3.60;;;3.20;;
60610;SDS011;46439;51.164;13.572;2022-08-01T07:38:19;6.30;;;3.30;;
60610;SDS011;46439;51.164;13.572;2022-08-01T07:40:47;5.60;;;3.40;;
60610;SDS011;46439;51.164;13.572;2022-08-01T07:43:16;7.00;;;3.20;;
60610;SDS011;46439;51.164;13.572;2022-08-01T07:45:46;5.70;;;3.30;;
60610;SDS011;46439;51.164;13.572;2022-08-01T07:48:15;4.80;;;3.00;;
60610;SDS011;46439;51.164;13.572;2022-08-01T07:50:43;5.70;;;3.30;;
60610;SDS011;46439;51.164;13.572;2022-08-01T07:53:12;6.00;;;3.20;;
60610;SDS011;46439;51.164;13.572;2022-08-01T07:55:40;5.40;;;2.90;;
60610;SDS011;46439;51.164;13.572;2022-08-01T07:58:09;4.70;;;2.90;;
60610;SDS011;46439;51.164;13.572;2022-08-01T08:00:37;5.70;;;3.00;;
60610;SDS011;46439;51.164;13.572;2022-08-01T08:03:05;3.90;;;2.90;;
60610;SDS011;46439;51.164;13.572;2022-08-01T08:05:34;3.90;;;2.90;;
60610;SDS011;46439;51.164;13.572;2022-08-01T08:08:03;3.90;;;2.60;;
60610;SDS011;46439;51.164;13.572;2022-08-01T08:10:32;4.90;;;3.20;;
60610;SDS011;46439;51.164;13.572;2022-08-01T08:13:01;4.10;;;2.90;;
60610;SDS011;46439;51.164;13.572;2022-08-01T08:15:30;4.30;;;3.20;;
60610;SDS011;46439;51.164;13.572;2022-08-01T08:17:58;5.00;;;3.30;;
60610;SDS011;46439;51.164;13.572;2022-08-01T08:20:27;3.00;;;2.70;;
60610;SDS011;46439;51.164;13.572;2022-08-01T08:22:56;4.30;;;2.60;;
60610;SDS011;46439;51.164;13.572;2022-08-01T08:25:25;3.90;;;2.60;;
60610;SDS011;46439;51.164;13.572;2022-08-01T08:27:55;3.60;;;2.60;;
60610;SDS011;46439;51.164;13.572;2022-08-01T08:30:23;3.00;;;2.60;;
60610;SDS011;46439;51.164;13.572;2022-08-01T08:32:51;4.10;;;2.60;;
60610;SDS011;46439;51.164;13.572;2022-08-01T08:35:20;3.40;;;2.50;;
60610;SDS011;46439;51.164;13.572;2022-08-01T08:37:49;4.80;;;2.30;;
60610;SDS011;46439;51.164;13.572;2022-08-01T08:40:17;6.50;;;3.30;;
60610;SDS011;46439;51.164;13.572;2022-08-01T08:42:47;4.40;;;2.40;;
60610;SDS011;46439;51.164;13.572;2022-08-01T08:45:16;3.40;;;2.60;;
60610;SDS011;46439;51.164;13.572;2022-08-01T08:47:45;7.70;;;2.50;;
60610;SDS011;46439;51.164;13.572;2022-08-01T08:50:15;6.00;;;2.80;;
60610;SDS011;46439;51.164;13.572;2022-08-01T08:52:43;3.40;;;2.30;;
60610;SDS011;46439;51.164;13.572;2022-08-01T08:55:14;6.80;;;2.50;;
60610;SDS011;46439;51.164;13.572;2022-08-01T08:57:44;3.90;;;2.40;;
60610;SDS011;46439;51.164;13.572;2022-08-01T09:00:14;2.70;;;2.50;;
60610;SDS011;46439;51.164;13.572;2022-08-01T09:02:43;2.60;;;2.40;;
60610;SDS011;46439;51.164;13.572;2022-08-01T09:05:15;3.60;;;2.40;;
60610;SDS011;46439;51.164;13.572;2022-08-01T09:07:44;4.50;;;2.30;;
60610;SDS011;46439;51.164;13.572;2022-08-01T09:10:12;3.70;;;2.70;;
60610;SDS011;46439;51.164;13.572;2022-08-01T09:12:59;3.70;;;2.80;;
60610;SDS011;46439;51.164;13.572;2022-08-01T09:15:38;4.70;;;2.50;;
60610;SDS011;46439;51.164;13.572;2022-08-01T09:21:07;5.50;;;3.00;;
60610;SDS011;46439;51.164;13.572;2022-08-01T09:23:38;3.80;;;2.40;;
60610;SDS011;46439;51.164;13.572;2022-08-01T09:26:09;5.00;;;2.50;;
60610;SDS011;46439;51.164;13.572;2022-08-01T09:28:38;3.40;;;2.50;;
60610;SDS011;46439;51.164;13.572;2022-08-01T09:31:08;2.30;;;2.10;;
60610;SDS011;46439;51.164;13.572;2022-08-01T09:33:54;3.40;;;2.40;;
60610;SDS011;46439;51.164;13.572;2022-08-01T09:36:24;3.70;;;2.20;;
60610;SDS011;46439;51.164;13.572;2022-08-01T09:39:12;12.40;;;2.40;;
60610;SDS011;46439;51.164;13.572;2022-08-01T09:41:41;2.50;;;2.10;;
60610;SDS011;46439;51.164;13.572;2022-08-01T09:44:10;2.80;;;2.10;;
60610;SDS011;46439;51.164;13.572;2022-08-01T09:46:45;2.40;;;2.10;;
60610;SDS011;46439;51.164;13.572;2022-08-01T09:49:26;3.30;;;2.10;;
60610;SDS011;46439;51.164;13.572;2022-08-01T09:51:56;2.80;;;2.20;;
60610;SDS011;46439;51.164;13.572;2022-08-01T09:54:30;3.60;;;2.40;;
60610;SDS011;46439;51.164;13.572;2022-08-01T09:59:43;4.10;;;2.10;;
60610;SDS011;46439;51.164;13.572;2022-08-01T10:02:13;2.20;;;1.90;;
60610;SDS011;46439;51.164;13.572;2022-08-01T10:04:53;2.40;;;1.90;;
60610;SDS011;46439;51.164;13.572;2022-08-01T10:07:22;1.80;;;1.70;;
60610;SDS011;46439;51.164;13.572;2022-08-01T10:09:50;4.00;;;1.90;;
60610;SDS011;46439;51.164;13.572;2022-08-01T10:12:19;4.80;;;1.90;;
60610;SDS011;46439;51.164;13.572;2022-08-01T10:17:18;2.90;;;1.70;;
60610;SDS011;46439;51.164;13.572;2022-08-01T10:19:50;2.10;;;1.90;;
60610;SDS011;46439;51.164;13.572;2022-08-01T10:22:22;1.80;;;1.70;;
60610;SDS011;46439;51.164;13.572;2022-08-01T10:24:54;2.90;;;1.60;;
60610;SDS011;46439;51.164;13.572;2022-08-01T10:27:25;2.50;;;1.60;;
60610;SDS011;46439;51.164;13.572;2022-08-01T10:29:56;2.50;;;1.20;;
60610;SDS011;46439;51.164;13.572;2022-08-01T10:32:34;1.20;;;1.20;;
60610;SDS011;46439;51.164;13.572;2022-08-01T10:35:03;1.10;;;1.10;;
60610;SDS011;46439;51.164;13.572;2022-08-01T10:37:34;1.30;;;1.10;;
60610;SDS011;46439;51.164;13.572;2022-08-01T10:40:03;1.40;;;1.10;;
60610;SDS011;46439;51.164;13.572;2022-08-01T10:42:34;1.30;;;1.00;;
60610;SDS011;46439;51.164;13.572;2022-08-01T10:45:03;4.30;;;1.10;;
60610;SDS011;46439;51.164;13.572;2022-08-01T10:47:34;1.20;;;1.00;;
60610;SDS011;46439;51.164;13.572;2022-08-01T10:50:17;3.20;;;1.10;;
60610;SDS011;46439;51.164;13.572;2022-08-01T10:53:11;1.90;;;1.00;;
60610;SDS011;46439;51.164;13.572;2022-08-01T10:55:48;2.90;;;1.10;;
60610;SDS011;46439;51.164;13.572;2022-08-01T10:58:22;1.00;;;1.00;;
60610;SDS011;46439;51.164;13.572;2022-08-01T11:03:55;1.20;;;1.10;;
60610;SDS011;46439;51.164;13.572;2022-08-01T11:06:28;1.10;;;1.00;;
60610;SDS011;46439;51.164;13.572;2022-08-01T11:09:15;0.90;;;0.90;;
60610;SDS011;46439;51.164;13.572;2022-08-01T11:12:00;3.30;;;0.90;;
60610;SDS011;46439;51.164;13.572;2022-08-01T11:15:15;1.30;;;1.10;;
60610;SDS011;46439;51.164;13.572;2022-08-01T11:17:40;1.50;;;1.20;;
60610;SDS011;46439;51.164;13.572;2022-08-01T11:20:18;1.50;;;1.20;;
60610;SDS011;46439;51.164;13.572;2022-08-01T11:26:08;1.60;;;1.30;;
60610;SDS011;46439;51.164;13.572;2022-08-01T11:28:40;2.30;;;1.40;;
60610;SDS011;46439;51.164;13.572;2022-08-01T11:33:57;1.30;;;1.20;;
60610;SDS011;46439;51.164;13.572;2022-08-01T11:36:26;2.00;;;1.50;;
60610;SDS011;46439;51.164;13.572;2022-08-01T11:41:44;2.90;;;1.30;;
60610;SDS011;46439;51.164;13.572;2022-08-01T11:44:15;4.20;;;1.40;;
60610;SDS011;46439;51.164;13.572;2022-08-01T11:49:26;2.80;;;1.10;;
60610;SDS011;46439;51.164;13.572;2022-08-01T11:52:03;4.40;;;1.40;;
60610;SDS011;46439;51.164;13.572;2022-08-01T11:54:33;2.40;;;1.10;;
60610;SDS011;46439;51.164;13.572;2022-08-01T11:57:04;1.50;;;1.30;;
60610;SDS011;46439;51.164;13.572;2022-08-01T11:59:37;3.60;;;1.30;;
60610;SDS011;46439;51.164;13.572;2022-08-01T12:02:18;4.30;;;1.20;;
60610;SDS011;46439;51.164;13.572;2022-08-01T12:04:49;3.60;;;1.80;;
60610;SDS011;46439;51.164;13.572;2022-08-01T12:07:19;2.40;;;1.20;;
60610;SDS011;46439;51.164;13.572;2022-08-01T12:09:56;1.30;;;1.20;;
60610;SDS011;46439;51.164;13.572;2022-08-01T12:12:27;3.30;;;1.40;;
60610;SDS011;46439;51.164;13.572;2022-08-01T12:14:57;1.40;;;1.30;;
60610;SDS011;46439;51.164;13.572;2022-08-01T12:17:34;3.90;;;1.40;;
60610;SDS011;46439;51.164;13.572;2022-08-01T12:20:04;5.40;;;1.40;;
60610;SDS011;46439;51.164;13.572;2022-08-01T12:22:35;1.60;;;1.30;;
60610;SDS011;46439;51.164;13.572;2022-08-01T12:25:08;1.80;;;1.70;;
60610;SDS011;46439;51.164;13.572;2022-08-01T12:27:38;3.50;;;1.40;;
60610;SDS011;46439;51.164;13.572;2022-08-01T12:30:09;1.20;;;1.20;;
60610;SDS011;46439;51.164;13.572;2022-08-01T12:32:39;1.40;;;1.30;;
60610;SDS011;46439;51.164;13.572;2022-08-01T12:35:09;1.20;;;1.10;;
60610;SDS011;46439;51.164;13.572;2022-08-01T12:37:41;2.40;;;1.20;;
60610;SDS011;46439;51.164;13.572;2022-08-01T12:40:12;1.40;;;1.30;;
60610;SDS011;46439;51.164;13.572;2022-08-01T12:42:43;2.30;;;1.10;;
60610;SDS011;46439;51.164;13.572;2022-08-01T12:45:13;1.30;;;1.20;;
60610;SDS011;46439;51.164;13.572;2022-08-01T12:47:43;2.30;;;1.40;;
60610;SDS011;46439;51.164;13.572;2022-08-01T12:50:14;1.10;;;1.10;;
60610;SDS011;46439;51.164;13.572;2022-08-01T12:52:44;4.70;;;1.20;;
60610;SDS011;46439;51.164;13.572;2022-08-01T12:55:14;3.20;;;1.00;;
60610;SDS011;46439;51.164;13.572;2022-08-01T12:57:44;1.00;;;0.90;;
60610;SDS011;46439;51.164;13.572;2022-08-01T13:00:18;2.10;;;0.80;;
60610;SDS011;46439;51.164;13.572;2022-08-01T13:02:49;0.60;;;0.60;;
60610;SDS011;46439;51.164;13.572;2022-08-01T13:05:27;1.80;;;0.80;;
60610;SDS011;46439;51.164;13.572;2022-08-01T13:08:10;5.80;;;1.10;;
60610;SDS011;46439;51.164;13.572;2022-08-01T13:10:39;1.20;;;1.00;;
60610;SDS011;46439;51.164;13.572;2022-08-01T13:13:09;1.10;;;1.00;;
60610;SDS011;46439;51.164;13.572;2022-08-01T13:15:38;3.10;;;1.20;;
60610;SDS011;46439;51.164;13.572;2022-08-01T13:18:26;2.40;;;1.10;;
60610;SDS011;46439;51.164;13.572;2022-08-01T13:21:11;4.60;;;1.20;;
60610;SDS011;46439;51.164;13.572;2022-08-01T13:23:42;2.20;;;1.20;;
60610;SDS011;46439;51.164;13.572;2022-08-01T13:26:44;1.30;;;1.20;;
60610;SDS011;46439;51.164;13.572;2022-08-01T13:29:14;1.80;;;1.10;;
60610;SDS011;46439;51.164;13.572;2022-08-01T13:31:43;5.70;;;1.30;;
60610;SDS011;46439;51.164;13.572;2022-08-01T13:34:12;1.10;;;1.00;;
60610;SDS011;46439;51.164;13.572;2022-08-01T13:36:41;2.80;;;1.30;;
60610;SDS011;46439;51.164;13.572;2022-08-01T13:39:10;1.90;;;1.10;;
60610;SDS011;46439;51.164;13.572;2022-08-01T13:41:57;1.00;;;1.00;;
60610;SDS011;46439;51.164;13.572;2022-08-01T13:44:26;1.00;;;1.00;;
60610;SDS011;46439;51.164;13.572;2022-08-01T13:46:54;1.20;;;1.20;;
60610;SDS011;46439;51.164;13.572;2022-08-01T13:49:22;5.90;;;1.40;;
60610;SDS011;46439;51.164;13.572;2022-08-01T13:51:51;2.10;;;1.40;;
60610;SDS011;46439;51.164;13.572;2022-08-01T13:54:19;2.50;;;1.40;;
60610;SDS011;46439;51.164;13.572;2022-08-01T13:56:47;2.50;;;1.20;;
60610;SDS011;46439;51.164;13.572;2022-08-01T13:59:16;1.40;;;1.30;;
60610;SDS011;46439;51.164;13.572;2022-08-01T14:01:44;1.40;;;1.30;;
60610;SDS011;46439;51.164;13.572;2022-08-01T14:04:12;3.50;;;1.60;;
60610;SDS011;46439;51.164;13.572;2022-08-01T14:06:41;3.50;;;1.30;;
60610;SDS011;46439;51.164;13.572;2022-08-01T14:09:10;2.40;;;1.40;;
60610;SDS011;46439;51.164;13.572;2022-08-01T14:11:38;3.40;;;1.30;;
60610;SDS011;46439;51.164;13.572;2022-08-01T14:14:07;1.60;;;1.40;;
60610;SDS011;46439;51.164;13.572;2022-08-01T14:16:35;1.70;;;1.60;;
60610;SDS011;46439;51.164;13.572;2022-08-01T14:19:03;2.40;;;1.30;;
60610;SDS011;46439;51.164;13.572;2022-08-01T14:21:32;4.70;;;1.50;;
60610;SDS011;46439;51.164;13.572;2022-08-01T14:24:02;2.80;;;1.40;;
60610;SDS011;46439;51.164;13.572;2022-08-01T14:26:33;4.10;;;1.30;;
60610;SDS011;46439;51.164;13.572;2022-08-01T14:29:01;1.90;;;1.30;;
60610;SDS011;46439;51.164;13.572;2022-08-01T14:31:30;1.00;;;1.00;;
60610;SDS011;46439;51.164;13.572;2022-08-01T14:33:58;1.10;;;1.10;;
60610;SDS011;46439;51.164;13.572;2022-08-01T14:36:26;1.60;;;1.20;;
60610;SDS011;46439;51.164;13.572;2022-08-01T14:38:55;2.20;;;1.30;;
60610;SDS011;46439;51.164;13.572;2022-08-01T14:41:23;3.60;;;1.10;;
60610;SDS011;46439;51.164;13.572;2022-08-01T14:43:52;1.80;;;1.40;;
60610;SDS011;46439;51.164;13.572;2022-08-01T14:46:20;1.10;;;1.00;;
60610;SDS011;46439;51.164;13.572;2022-08-01T14:48:48;1.70;;;1.10;;
60610;SDS011;46439;51.164;13.572;2022-08-01T14:51:17;2.00;;;1.20;;
60610;SDS011;46439;51.164;13.572;2022-08-01T14:53:45;1.40;;;1.30;;
60610;SDS011;46439;51.164;13.572;2022-08-01T14:56:14;1.30;;;1.20;;
60610;SDS011;46439;51.164;13.572;2022-08-01T14:58:43;1.20;;;1.10;;
60610;SDS011;46439;51.164;13.572;2022-08-01T15:01:12;1.80;;;1.20;;
60610;SDS011;46439;51.164;13.572;2022-08-01T15:03:40;1.30;;;1.20;;
60610;SDS011;46439;51.164;13.572;2022-08-01T15:06:08;2.80;;;1.20;;
60610;SDS011;46439;51.164;13.572;2022-08-01T15:08:38;1.20;;;1.20;;
60610;SDS011;46439;51.164;13.572;2022-08-01T15:11:06;3.30;;;1.30;;
60610;SDS011;46439;51.164;13.572;2022-08-01T15:13:35;1.20;;;1.10;;
60610;SDS011;46439;51.164;13.572;2022-08-01T15:16:03;1.70;;;1.10;;
60610;SDS011;46439;51.164;13.572;2022-08-01T15:18:32;2.50;;;1.10;;
60610;SDS011;46439;51.164;13.572;2022-08-01T15:21:00;1.20;;;1.00;;
60610;SDS011;46439;51.164;13.572;2022-08-01T15:23:29;1.30;;;1.20;;
60610;SDS011;46439;51.164;13.572;2022-08-01T15:25:57;1.40;;;1.30;;
60610;SDS011;46439;51.164;13.572;2022-08-01T15:28:26;1.10;;;1.10;;